Time;durP1;ratioP1;P1;durP2;ratioP2;P2;SDS_P1;SDS_P2;PMS_P1;PMS_P2;Temp;Humidity;BMP_temperature;BMP_pressure;BME280_temperature;BME280_humidity;BME280_pressure;Samples;Min_cycle;Max_cycle;Signal;HPM_P1;HPM_P2
2022/10/08 00:00:48;;;;;;;8.48;3.90;;;14.40;99.90;;;;;;5068658;28;20028;-81
2022/10/08 00:03:15;;;;;;;8.35;4.75;;;14.40;99.90;;;;;;5068083;28;20496;-81
2022/10/08 00:05:41;;;;;;;7.47;3.97;;;14.40;99.90;;;;;;5066333;28;20025;-82
2022/10/08 00:08:07;;;;;;;10.02;3.38;;;14.40;99.90;;;;;;5066851;28;20108;-81
2022/10/08 00:10:33;;;;;;;7.68;3.58;;;14.30;99.90;;;;;;5067690;28;20467;-82
2022/10/08 00:13:00;;;;;;;8.90;4.22;;;14.30;99.90;;;;;;5065096;28;20114;-82
2022/10/08 00:15:26;;;;;;;7.93;3.85;;;14.30;99.90;;;;;;5063288;28;20028;-82
2022/10/08 00:17:52;;;;;;;9.75;4.45;;;14.30;99.90;;;;;;5067164;28;20648;-82
2022/10/08 00:20:18;;;;;;;5.93;3.88;;;14.30;99.90;;;;;;5065898;28;20115;-81
2022/10/08 00:22:43;;;;;;;7.85;4.40;;;14.30;99.90;;;;;;5068877;28;20658;-81
2022/10/08 00:25:09;;;;;;;11.50;5.18;;;14.40;99.90;;;;;;5070310;28;20036;-82
2022/10/08 00:27:35;;;;;;;9.18;4.10;;;14.30;99.90;;;;;;5068689;28;20066;-82
2022/10/08 00:30:02;;;;;;;6.30;4.55;;;14.30;99.90;;;;;;5070092;28;20064;-82
2022/10/08 00:32:27;;;;;;;6.45;4.18;;;14.30;99.90;;;;;;5058812;28;20067;-82
2022/10/08 00:34:53;;;;;;;11.85;3.88;;;14.30;99.90;;;;;;5070731;28;20064;-82
2022/10/08 00:37:18;;;;;;;6.45;4.13;;;14.40;99.90;;;;;;5071673;28;20411;-81
2022/10/08 00:39:44;;;;;;;10.63;4.47;;;14.40;99.90;;;;;;5070595;28;20052;-81
2022/10/08 00:42:11;;;;;;;7.60;4.43;;;14.30;99.90;;;;;;5072126;28;20037;-81
2022/10/08 00:44:50;;;;;;;8.23;3.85;;;14.30;99.90;;;;;;5070541;28;20032;-81
2022/10/08 00:47:25;;;;;;;5.82;4.00;;;14.40;99.90;;;;;;5069805;28;20086;-82
2022/10/08 00:49:56;;;;;;;6.03;4.47;;;14.40;99.90;;;;;;5071428;28;20441;-81
2022/10/08 00:52:24;;;;;;;8.25;4.15;;;14.40;99.90;;;;;;5068230;28;20031;-82
2022/10/08 00:54:50;;;;;;;6.35;4.03;;;14.50;99.90;;;;;;5069458;28;20036;-82
2022/10/08 00:57:18;;;;;;;6.22;3.90;;;14.40;99.90;;;;;;5072907;28;20963;-81
2022/10/08 00:59:43;;;;;;;9.00;5.07;;;14.40;99.90;;;;;;5073058;28;20084;-81
2022/10/08 01:02:09;;;;;;;11.27;4.35;;;14.50;99.90;;;;;;5071261;28;20033;-81
2022/10/08 01:04:36;;;;;;;7.38;4.95;;;14.50;99.90;;;;;;5080227;28;20100;-81
2022/10/08 01:07:17;;;;;;;9.10;4.93;;;14.40;99.90;;;;;;5079493;28;20111;-81
2022/10/08 01:10:04;;;;;;;6.43;4.40;;;14.40;99.90;;;;;;5071251;28;20028;-83
2022/10/08 01:12:49;;;;;;;7.55;4.47;;;14.40;99.90;;;;;;5066684;28;20016;-82
2022/10/08 01:15:23;;;;;;;6.65;3.83;;;14.40;99.90;;;;;;5068866;28;20024;-81
2022/10/08 01:17:53;;;;;;;5.88;4.80;;;14.40;99.90;;;;;;5064490;28;20029;-81
2022/10/08 01:20:30;;;;;;;11.95;4.43;;;14.30;99.90;;;;;;5068089;28;20027;-82
2022/10/08 01:23:04;;;;;;;8.73;4.28;;;14.30;99.90;;;;;;5065352;28;20032;-82
2022/10/08 01:25:45;;;;;;;9.68;4.50;;;14.30;99.90;;;;;;5066992;28;20024;-81
2022/10/08 01:28:39;;;;;;;7.57;4.43;;;14.30;99.90;;;;;;5062660;28;20533;-81
2022/10/08 01:31:10;;;;;;;4.75;4.22;;;14.30;99.90;;;;;;5066533;28;20520;-81
2022/10/08 01:33:43;;;;;;;8.63;4.78;;;14.20;99.90;;;;;;5068408;28;20040;-82
2022/10/08 01:36:10;;;;;;;;;;;14.20;99.90;;;;;;5053775;28;20040;-82
2022/10/08 01:38:41;;;;;;;6.65;4.80;;;14.10;99.90;;;;;;5065175;28;20377;-82
2022/10/08 01:41:08;;;;;;;10.30;5.93;;;14.10;99.90;;;;;;5068109;28;20082;-82
2022/10/08 01:43:42;;;;;;;9.40;4.63;;;14.10;99.90;;;;;;5064023;28;20071;-81
2022/10/08 01:46:18;;;;;;;8.18;4.43;;;14.10;99.90;;;;;;5062857;28;20052;-81
2022/10/08 01:48:46;;;;;;;14.55;4.95;;;14.00;99.90;;;;;;5071489;28;20031;-82
2022/10/08 01:51:22;;;;;;;8.70;5.05;;;14.10;99.90;;;;;;5063033;28;20028;-81
2022/10/08 01:53:50;;;;;;;6.60;4.57;;;14.10;99.90;;;;;;5071255;28;20458;-81
2022/10/08 01:56:22;;;;;;;6.40;4.25;;;14.00;99.90;;;;;;5069944;28;20025;-82
2022/10/08 01:58:53;;;;;;;9.00;4.93;;;14.00;99.90;;;;;;5070111;28;20052;-81
2022/10/08 02:01:42;;;;;;;6.35;4.60;;;14.10;99.90;;;;;;5064431;28;20858;-81
2022/10/08 02:06:56;;;;;;;7.38;4.03;;;14.10;99.90;;;;;;5070229;28;20541;-81
2022/10/08 02:09:27;;;;;;;7.20;4.50;;;14.10;99.90;;;;;;5070872;28;20590;-81
2022/10/08 02:11:53;;;;;;;6.25;4.80;;;14.10;99.90;;;;;;5069380;28;20418;-82
2022/10/08 02:14:24;;;;;;;5.93;5.20;;;14.20;99.90;;;;;;5070144;28;20040;-82
2022/10/08 02:17:19;;;;;;;9.38;4.90;;;14.10;99.90;;;;;;5045213;28;20782;-82
2022/10/08 02:19:51;;;;;;;6.68;4.72;;;14.20;99.90;;;;;;5063111;28;20036;-82
2022/10/08 02:22:19;;;;;;;;;;;14.10;99.90;;;;;;5069726;28;20013;-82
2022/10/08 02:25:04;;;;;;;11.80;4.07;;;14.10;99.90;;;;;;5068781;28;19920;-82
2022/10/08 02:27:41;;;;;;;8.65;4.35;;;14.10;99.90;;;;;;5049141;28;20550;-81
2022/10/08 02:30:10;;;;;;;9.63;4.35;;;14.10;99.90;;;;;;5062276;28;20624;-82
2022/10/08 02:32:49;;;;;;;6.72;4.30;;;14.10;99.90;;;;;;5065286;28;20036;-79
2022/10/08 02:35:37;;;;;;;9.27;5.30;;;14.00;99.90;;;;;;5063545;28;20032;-80
2022/10/08 02:38:12;;;;;;;9.43;5.47;;;14.00;99.90;;;;;;5067556;28;20035;-80
2022/10/08 02:40:41;;;;;;;4.65;4.25;;;14.00;99.90;;;;;;5070037;28;20441;-81
2022/10/08 02:43:12;;;;;;;6.53;4.68;;;14.00;99.90;;;;;;5068421;28;20073;-80
2022/10/08 02:45:45;;;;;;;9.45;4.60;;;14.10;99.90;;;;;;5079319;28;20032;-81
2022/10/08 02:48:18;;;;;;;5.90;4.60;;;14.00;99.90;;;;;;5077541;28;20034;-80
2022/10/08 02:50:46;;;;;;;;;;;14.00;99.90;;;;;;5080054;28;20094;-80
2022/10/08 02:53:14;;;;;;;7.97;4.63;;;14.00;99.90;;;;;;5074163;28;19908;-80
2022/10/08 02:55:49;;;;;;;5.43;4.40;;;14.00;99.90;;;;;;5079932;28;20059;-80
2022/10/08 02:58:15;;;;;;;9.65;4.43;;;14.00;99.90;;;;;;5079039;28;20063;-81
2022/10/08 03:00:57;;;;;;;6.57;4.53;;;14.00;99.90;;;;;;5066387;28;20031;-81
2022/10/08 03:03:31;;;;;;;7.77;5.10;;;14.00;99.90;;;;;;5066222;28;20024;-81
2022/10/08 03:06:00;;;;;;;10.98;4.78;;;14.00;99.90;;;;;;5067852;28;20032;-80
2022/10/08 03:08:28;;;;;;;6.30;5.60;;;14.00;99.90;;;;;;5069058;28;20035;-81
2022/10/08 03:10:54;;;;;;;8.50;4.53;;;14.00;99.90;;;;;;5069421;28;20386;-81
2022/10/08 03:13:22;;;;;;;7.10;4.55;;;14.10;99.90;;;;;;5065409;28;20593;-81
2022/10/08 03:15:51;;;;;;;8.00;5.30;;;14.10;99.90;;;;;;5067166;28;20104;-81
2022/10/08 03:18:18;;;;;;;7.22;4.15;;;14.10;99.90;;;;;;5068046;28;20035;-81
2022/10/08 03:20:47;;;;;;;6.47;4.82;;;14.10;99.90;;;;;;5048695;28;20474;-80
2022/10/08 03:23:15;;;;;;;7.57;4.78;;;14.10;99.90;;;;;;5067720;28;20486;-82
2022/10/08 03:25:41;;;;;;;13.35;4.85;;;14.10;99.90;;;;;;5067195;28;20067;-81
2022/10/08 03:28:07;;;;;;;6.90;5.00;;;14.10;99.90;;;;;;5068161;28;20064;-81
2022/10/08 03:30:32;;;;;;;7.05;5.25;;;14.20;99.90;;;;;;5066376;28;20040;-81
2022/10/08 03:32:58;;;;;;;8.02;5.05;;;14.20;99.90;;;;;;5064929;28;20044;-81
2022/10/08 03:35:23;;;;;;;6.38;5.10;;;14.20;99.90;;;;;;5068333;28;20041;-82
2022/10/08 03:37:51;;;;;;;9.05;5.15;;;14.20;99.90;;;;;;5068328;28;20075;-81
2022/10/08 03:40:17;;;;;;;12.00;5.63;;;14.20;99.90;;;;;;5066114;28;20129;-82
2022/10/08 03:42:42;;;;;;;7.13;5.05;;;14.20;99.90;;;;;;5067349;28;20589;-81
2022/10/08 03:45:08;;;;;;;7.30;5.22;;;14.20;99.90;;;;;;5071044;28;20032;-82
2022/10/08 03:47:33;;;;;;;8.88;4.95;;;14.20;99.90;;;;;;5062588;28;20028;-81
2022/10/08 03:49:59;;;;;;;9.00;5.13;;;14.20;99.90;;;;;;5067180;28;20035;-81
2022/10/08 03:52:25;;;;;;;7.68;5.25;;;14.20;99.90;;;;;;5066597;28;20032;-82
2022/10/08 03:54:50;;;;;;;9.40;5.05;;;14.20;99.90;;;;;;5067818;28;20470;-82
2022/10/08 03:57:15;;;;;;;11.88;5.30;;;14.20;99.90;;;;;;5066038;28;20044;-82
2022/10/08 03:59:41;;;;;;;6.95;4.88;;;14.20;99.90;;;;;;5065843;28;20035;-82
2022/10/08 04:02:07;;;;;;;7.43;5.25;;;14.20;99.90;;;;;;5066070;28;20094;-82
2022/10/08 04:04:32;;;;;;;6.45;4.68;;;14.20;99.90;;;;;;5066554;28;20437;-81
2022/10/08 04:06:58;;;;;;;7.80;5.15;;;14.20;99.90;;;;;;5066837;28;20489;-81
2022/10/08 04:09:23;;;;;;;7.40;5.18;;;14.10;99.90;;;;;;5063580;28;20079;-81
2022/10/08 04:11:49;;;;;;;7.28;5.13;;;14.10;99.90;;;;;;5059762;28;20033;-81
2022/10/08 04:14:14;;;;;;;8.43;5.65;;;14.10;99.90;;;;;;5058014;28;20052;-81
2022/10/08 04:16:40;;;;;;;9.02;4.93;;;14.10;99.90;;;;;;5046885;28;20056;-81
2022/10/08 04:19:05;;;;;;;11.00;5.82;;;14.10;99.90;;;;;;5067916;28;20056;-81
2022/10/08 04:21:31;;;;;;;7.47;5.35;;;14.00;99.90;;;;;;5067118;28;20085;-81
2022/10/08 04:23:56;;;;;;;8.70;6.57;;;14.00;99.90;;;;;;5068891;28;20275;-81
2022/10/08 04:26:22;;;;;;;6.05;4.80;;;14.00;99.90;;;;;;5066875;28;20033;-81
2022/10/08 04:28:47;;;;;;;13.27;6.10;;;14.00;99.90;;;;;;5067310;28;20662;-80
2022/10/08 04:31:17;;;;;;;8.23;5.22;;;14.00;99.90;;;;;;5065541;28;20112;-80
2022/10/08 04:33:43;;;;;;;8.57;5.00;;;14.00;99.90;;;;;;5066178;28;20047;-80
2022/10/08 04:36:14;;;;;;;7.20;5.10;;;14.00;99.90;;;;;;5067441;28;20079;-81
2022/10/08 04:38:42;;;;;;;8.15;4.85;;;14.00;99.90;;;;;;5067517;28;20045;-81
2022/10/08 04:41:13;;;;;;;8.10;5.03;;;14.00;99.90;;;;;;5067502;28;20032;-81
2022/10/08 04:43:40;;;;;;;7.00;5.07;;;14.00;99.90;;;;;;5067171;28;20054;-81
2022/10/08 04:46:08;;;;;;;6.40;5.53;;;14.00;99.90;;;;;;5060017;28;20037;-81
2022/10/08 04:48:34;;;;;;;7.10;4.45;;;14.00;99.90;;;;;;5062838;28;20040;-81
2022/10/08 04:51:02;;;;;;;7.82;5.20;;;14.00;99.90;;;;;;5068542;28;20198;-81
2022/10/08 04:53:28;;;;;;;8.27;4.90;;;14.10;99.90;;;;;;5068257;28;20020;-80
2022/10/08 04:55:55;;;;;;;8.50;4.72;;;14.10;99.90;;;;;;5052745;28;20132;-81
2022/10/08 04:58:22;;;;;;;9.20;5.25;;;14.10;99.90;;;;;;5071326;28;20032;-81
2022/10/08 05:00:47;;;;;;;8.65;5.35;;;14.20;99.90;;;;;;5072426;28;20017;-81
2022/10/08 05:03:13;;;;;;;8.52;4.72;;;14.20;99.90;;;;;;5059852;28;20451;-81
2022/10/08 05:05:40;;;;;;;7.60;4.82;;;14.20;99.90;;;;;;5057179;28;20043;-80
2022/10/08 05:08:05;;;;;;;6.95;5.28;;;14.30;99.90;;;;;;5067263;28;20052;-81
2022/10/08 05:10:32;;;;;;;6.55;4.85;;;14.30;99.90;;;;;;5068849;28;20063;-81
2022/10/08 05:12:57;;;;;;;5.47;4.50;;;14.30;99.90;;;;;;5069207;28;20125;-81
2022/10/08 05:15:23;;;;;;;11.25;4.85;;;14.30;99.90;;;;;;5067257;28;20457;-80
2022/10/08 05:17:49;;;;;;;6.75;5.60;;;14.30;99.90;;;;;;5067729;28;20044;-80
2022/10/08 05:20:14;;;;;;;8.57;5.30;;;14.20;99.90;;;;;;5065261;28;20098;-83
2022/10/08 05:22:40;;;;;;;7.35;5.00;;;14.20;99.90;;;;;;5067248;28;20300;-82
2022/10/08 05:25:06;;;;;;;4.93;4.43;;;14.20;99.90;;;;;;5067472;28;20048;-83
2022/10/08 05:27:31;;;;;;;10.63;4.53;;;14.20;99.90;;;;;;5067759;28;20032;-82
2022/10/08 05:29:57;;;;;;;8.27;5.05;;;14.20;99.90;;;;;;5066803;28;20360;-82
2022/10/08 05:32:22;;;;;;;6.30;4.88;;;14.20;99.90;;;;;;5064324;28;20033;-82
2022/10/08 05:34:48;;;;;;;9.65;4.88;;;14.20;99.90;;;;;;5063120;28;20068;-83
2022/10/08 05:37:13;;;;;;;8.25;5.50;;;14.20;99.90;;;;;;5065447;28;20048;-81
2022/10/08 05:39:39;;;;;;;10.52;5.15;;;14.20;99.90;;;;;;5060831;28;20033;-82
2022/10/08 05:42:04;;;;;;;7.10;4.90;;;14.20;99.90;;;;;;5065955;28;20685;-82
2022/10/08 05:44:30;;;;;;;14.10;5.07;;;14.30;99.90;;;;;;5067600;28;20391;-82
2022/10/08 05:46:55;;;;;;;13.48;5.38;;;14.20;99.90;;;;;;5045011;28;20051;-83
2022/10/08 05:49:22;;;;;;;10.13;5.13;;;14.20;99.90;;;;;;5067454;28;20024;-83
2022/10/08 05:51:48;;;;;;;6.45;4.90;;;14.20;99.90;;;;;;5066645;28;20028;-82
2022/10/08 05:54:16;;;;;;;12.95;4.93;;;14.20;99.90;;;;;;5049301;28;20024;-83
2022/10/08 05:56:42;;;;;;;10.70;5.18;;;14.20;99.90;;;;;;5064651;28;20478;-82
2022/10/08 05:59:21;;;;;;;8.07;5.07;;;14.20;99.90;;;;;;5067769;28;20035;-82
2022/10/08 06:01:47;;;;;;;8.45;5.22;;;14.20;99.90;;;;;;5067904;28;20028;-82
2022/10/08 06:04:13;;;;;;;8.90;6.07;;;14.20;99.90;;;;;;5065470;28;20186;-82
2022/10/08 06:06:40;;;;;;;7.82;4.85;;;14.20;99.90;;;;;;5048802;28;20098;-83
2022/10/08 06:09:07;;;;;;;5.85;4.22;;;14.20;99.90;;;;;;5066850;28;20036;-82
2022/10/08 06:11:35;;;;;;;12.93;6.70;;;14.20;99.90;;;;;;5068514;28;20043;-83
2022/10/08 06:14:01;;;;;;;11.73;5.28;;;14.20;99.90;;;;;;5061158;28;20108;-82
2022/10/08 06:16:29;;;;;;;8.50;4.80;;;14.30;99.90;;;;;;5048523;28;20383;-84
2022/10/08 06:18:54;;;;;;;8.93;4.80;;;14.30;99.90;;;;;;5070011;28;20062;-82
2022/10/08 06:21:22;;;;;;;9.30;5.03;;;14.30;99.90;;;;;;5069101;28;20502;-82
2022/10/08 06:23:50;;;;;;;8.35;6.68;;;14.40;99.90;;;;;;5086740;28;20028;-81
2022/10/08 06:26:17;;;;;;;10.00;5.07;;;14.40;99.90;;;;;;5088342;28;20036;-81
2022/10/08 06:28:43;;;;;;;9.85;4.35;;;14.40;99.90;;;;;;5075367;28;20040;-83
2022/10/08 06:31:08;;;;;;;11.07;4.80;;;14.50;99.90;;;;;;5089001;28;20032;-81
2022/10/08 06:33:34;;;;;;;8.80;5.50;;;14.50;99.90;;;;;;5083856;28;20039;-82
2022/10/08 06:36:03;;;;;;;8.85;5.97;;;14.50;99.90;;;;;;5083772;28;20096;-82
2022/10/08 06:38:30;;;;;;;7.32;4.93;;;14.60;99.90;;;;;;5074471;28;20148;-84
2022/10/08 06:40:58;;;;;;;8.63;4.10;;;14.60;99.90;;;;;;5064929;28;20501;-81
2022/10/08 06:43:24;;;;;;;5.82;3.80;;;14.70;99.90;;;;;;5064818;28;20050;-82
2022/10/08 06:45:49;;;;;;;8.57;4.82;;;14.70;99.90;;;;;;5064331;28;20102;-82
2022/10/08 06:48:15;;;;;;;7.68;4.25;;;14.70;99.90;;;;;;5063123;28;20352;-82
2022/10/08 06:50:40;;;;;;;8.48;4.10;;;14.80;99.90;;;;;;5048824;28;20048;-81
2022/10/08 06:53:08;;;;;;;7.28;4.57;;;14.90;99.90;;;;;;5061282;28;20462;-82
2022/10/08 06:55:34;;;;;;;7.38;4.00;;;14.90;99.90;;;;;;5063840;28;20029;-82
2022/10/08 06:58:01;;;;;;;8.13;4.40;;;15.00;99.90;;;;;;5064363;28;20387;-81
2022/10/08 07:00:27;;;;;;;7.38;4.10;;;15.00;99.90;;;;;;5062694;28;20039;-82
2022/10/08 07:02:52;;;;;;;10.20;4.28;;;15.10;99.90;;;;;;5068297;28;20036;-81
2022/10/08 07:05:18;;;;;;;5.93;3.47;;;15.10;99.90;;;;;;5063585;28;20032;-82
2022/10/08 07:07:44;;;;;;;7.75;4.80;;;15.20;99.90;;;;;;5061300;28;20036;-81
2022/10/08 07:10:10;;;;;;;7.70;3.10;;;15.30;99.90;;;;;;5062431;28;20492;-82
2022/10/08 07:12:36;;;;;;;5.05;3.15;;;15.30;99.90;;;;;;5045694;28;20029;-82
2022/10/08 07:15:02;;;;;;;9.98;3.67;;;15.40;99.90;;;;;;5066189;28;20506;-82
2022/10/08 07:17:28;;;;;;;6.05;2.70;;;15.40;99.90;;;;;;5065447;28;20036;-82
2022/10/08 07:19:54;;;;;;;11.82;3.15;;;15.40;99.90;;;;;;5065934;28;20467;-82
2022/10/08 07:22:22;;;;;;;5.97;2.50;;;15.40;99.90;;;;;;5063847;28;20031;-83
2022/10/08 07:24:48;;;;;;;7.47;2.65;;;15.40;99.90;;;;;;5066308;28;20086;-83
2022/10/08 07:27:14;;;;;;;8.45;2.72;;;15.50;99.90;;;;;;5062371;28;20021;-82
2022/10/08 07:29:39;;;;;;;8.32;2.85;;;15.40;99.90;;;;;;5060510;28;20052;-82
2022/10/08 07:32:05;;;;;;;11.57;3.42;;;15.40;99.90;;;;;;5064508;28;20021;-83
2022/10/08 07:34:30;;;;;;;5.88;2.90;;;15.50;99.90;;;;;;5062701;28;20041;-82
2022/10/08 07:36:56;;;;;;;7.30;2.53;;;15.50;99.90;;;;;;5064856;28;20074;-82
2022/10/08 07:39:21;;;;;;;6.40;2.00;;;15.60;99.90;;;;;;5067565;28;20431;-82
2022/10/08 07:41:48;;;;;;;5.05;2.30;;;15.70;99.90;;;;;;5064134;28;20033;-82
2022/10/08 07:44:15;;;;;;;5.65;1.70;;;15.80;99.90;;;;;;5062309;28;20059;-82
2022/10/08 07:46:48;;;;;;;5.63;2.47;;;15.80;99.90;;;;;;5064439;28;20032;-82
2022/10/08 07:49:15;;;;;;;9.35;2.00;;;15.90;99.90;;;;;;5063141;28;20056;-82
2022/10/08 07:51:41;;;;;;;6.93;2.00;;;16.00;99.90;;;;;;5066331;28;20482;-82
2022/10/08 07:54:10;;;;;;;8.27;2.40;;;16.00;99.90;;;;;;5066912;28;20123;-83
2022/10/08 07:56:36;;;;;;;7.20;2.72;;;16.00;99.90;;;;;;5064473;28;20045;-82
2022/10/08 07:59:03;;;;;;;5.40;2.20;;;16.00;99.90;;;;;;5062716;28;20020;-82
2022/10/08 08:01:31;;;;;;;5.63;2.10;;;16.00;99.90;;;;;;5062639;28;20341;-81
2022/10/08 08:04:02;;;;;;;8.75;2.50;;;16.10;99.90;;;;;;5062340;28;20087;-81
2022/10/08 08:06:29;;;;;;;9.18;3.05;;;16.20;99.90;;;;;;5064101;28;20581;-84
2022/10/08 08:08:55;;;;;;;8.90;2.83;;;16.20;99.90;;;;;;5065607;28;20051;-83
2022/10/08 08:11:23;;;;;;;7.72;2.67;;;16.30;99.90;;;;;;5064017;28;20421;-83
2022/10/08 08:13:49;;;;;;;6.78;2.53;;;16.30;99.90;;;;;;5064444;28;20043;-83
2022/10/08 08:16:18;;;;;;;5.45;1.88;;;16.30;99.90;;;;;;5063910;28;20440;-83
2022/10/08 08:18:47;;;;;;;9.48;2.72;;;16.30;99.90;;;;;;5060386;28;20078;-83
2022/10/08 08:21:16;;;;;;;9.88;2.25;;;16.30;99.90;;;;;;5066602;28;20661;-82
2022/10/08 08:23:43;;;;;;;14.20;2.85;;;16.20;99.90;;;;;;5066117;28;20029;-81
2022/10/08 08:26:15;;;;;;;6.70;1.95;;;16.10;99.90;;;;;;5052134;28;20036;-81
2022/10/08 08:28:40;;;;;;;3.70;1.42;;;16.10;99.90;;;;;;5066890;28;20033;-82
2022/10/08 08:31:15;;;;;;;8.93;2.05;;;16.10;99.90;;;;;;5048020;28;20039;-81
2022/10/08 08:33:42;;;;;;;6.45;2.17;;;16.10;99.90;;;;;;5066062;28;20047;-82
2022/10/08 08:36:08;;;;;;;4.75;2.03;;;16.10;99.90;;;;;;5066127;28;20028;-82
2022/10/08 08:38:35;;;;;;;10.55;2.00;;;16.20;99.90;;;;;;5067971;28;20028;-81
2022/10/08 08:41:38;;;;;;;9.80;4.70;;;16.20;99.90;;;;;;5071536;28;20035;-83
2022/10/08 08:44:29;;;;;;;9.30;2.83;;;16.30;99.90;;;;;;5061842;28;20060;-83
2022/10/08 08:47:05;;;;;;;6.53;1.98;;;16.40;99.90;;;;;;5052863;28;20040;-82
2022/10/08 08:49:41;;;;;;;6.40;1.65;;;16.50;99.90;;;;;;5091346;28;20358;-81
2022/10/08 08:52:08;;;;;;;6.13;2.40;;;16.50;99.90;;;;;;5092167;28;20025;-83
2022/10/08 08:54:34;;;;;;;10.98;2.42;;;16.50;99.90;;;;;;5078712;28;20032;-82
2022/10/08 08:57:22;;;;;;;4.38;1.42;;;16.60;99.90;;;;;;5075377;28;20037;-82
2022/10/08 08:59:54;;;;;;;5.70;1.88;;;16.60;99.90;;;;;;5066506;28;20494;-82
2022/10/08 09:02:30;;;;;;;7.63;2.15;;;16.70;99.90;;;;;;5067561;28;20748;-82
2022/10/08 09:05:02;;;;;;;9.52;2.63;;;16.70;99.90;;;;;;5070469;28;20044;-81
2022/10/08 09:07:37;;;;;;;10.40;3.38;;;16.70;99.90;;;;;;5067484;28;20048;-82
2022/10/08 09:10:08;;;;;;;9.40;2.70;;;16.80;99.90;;;;;;5067057;28;20878;-82
2022/10/08 09:12:40;;;;;;;7.68;1.92;;;16.80;99.90;;;;;;5068451;28;20027;-83
2022/10/08 09:15:27;;;;;;;6.68;2.03;;;16.90;99.90;;;;;;5047239;28;20447;-82
2022/10/08 09:17:53;;;;;;;5.43;2.20;;;17.00;99.90;;;;;;5065299;28;20043;-83
2022/10/08 09:20:22;;;;;;;8.73;2.80;;;16.90;99.90;;;;;;5055455;28;20037;-82
2022/10/08 09:22:50;;;;;;;8.75;1.67;;;17.00;99.90;;;;;;5067743;28;20054;-82
2022/10/08 09:25:22;;;;;;;13.60;1.83;;;17.10;99.90;;;;;;5072905;28;20032;-82
2022/10/08 09:27:55;;;;;;;5.30;1.65;;;17.10;99.90;;;;;;5063430;28;20689;-82
2022/10/08 09:30:31;;;;;;;11.18;3.72;;;17.10;99.90;;;;;;5066818;28;20063;-83
2022/10/08 09:33:00;;;;;;;7.78;2.17;;;17.20;99.90;;;;;;5068248;28;20551;-83
2022/10/08 09:35:26;;;;;;;9.23;1.60;;;17.40;99.90;;;;;;5064827;28;20024;-82
2022/10/08 09:37:55;;;;;;;12.95;3.40;;;17.40;99.90;;;;;;5056439;28;20040;-82
2022/10/08 09:40:23;;;;;;;6.93;1.90;;;17.50;99.90;;;;;;5058131;28;20020;-81
2022/10/08 09:43:18;;;;;;;5.88;1.90;;;17.50;99.90;;;;;;5059906;28;20055;-82
2022/10/08 09:45:46;;;;;;;8.80;2.72;;;17.60;99.90;;;;;;5025819;28;20056;-83
2022/10/08 09:48:27;;;;;;;6.78;1.50;;;17.70;99.90;;;;;;5062054;28;20039;-82
2022/10/08 09:51:01;;;;;;;8.65;1.95;;;17.70;99.90;;;;;;5058267;28;20132;-81
2022/10/08 09:53:49;;;;;;;3.83;0.95;;;17.70;99.90;;;;;;5060317;28;20021;-82
2022/10/08 09:56:26;;;;;;;4.82;1.17;;;17.70;99.90;;;;;;5072082;28;20028;-82
2022/10/08 09:58:57;;;;;;;5.72;1.80;;;17.70;99.90;;;;;;5079794;28;20080;-82
2022/10/08 10:01:26;;;;;;;9.65;1.20;;;17.90;99.90;;;;;;5086293;28;20085;-82
2022/10/08 10:03:54;;;;;;;6.90;1.60;;;18.00;99.90;;;;;;5082343;28;20099;-81
2022/10/08 10:06:32;;;;;;;4.05;0.90;;;18.10;99.90;;;;;;5063096;28;20094;-83
2022/10/08 10:09:24;;;;;;;9.85;2.05;;;18.10;99.90;;;;;;5090552;28;20027;-82
2022/10/08 10:12:04;;;;;;;4.63;1.30;;;18.20;99.90;;;;;;5091512;28;20024;-84
2022/10/08 10:14:38;;;;;;;5.93;1.58;;;18.40;99.90;;;;;;5066022;28;20119;-82
2022/10/08 10:17:40;;;;;;;3.38;0.75;;;18.50;99.90;;;;;;5069715;28;20094;-83
2022/10/08 10:20:08;;;;;;;7.75;1.63;;;18.60;99.90;;;;;;5069805;28;20097;-83
2022/10/08 10:22:49;;;;;;;6.68;1.90;;;18.80;99.90;;;;;;5062636;28;20032;-83
2022/10/08 10:25:42;;;;;;;2.90;1.13;;;18.90;99.90;;;;;;5065756;28;20036;-82
2022/10/08 10:28:33;;;;;;;4.60;2.10;;;18.90;99.90;;;;;;5064707;28;20070;-82
2022/10/08 10:31:03;;;;;;;2.35;1.20;;;18.80;99.70;;;;;;5068497;28;20107;-82
2022/10/08 10:33:32;;;;;;;8.93;1.33;;;18.70;99.90;;;;;;5069781;28;20066;-82
2022/10/08 10:36:04;;;;;;;2.58;1.30;;;18.70;99.90;;;;;;5057984;28;20035;-82
2022/10/08 10:38:34;;;;;;;4.43;1.30;;;18.60;99.90;;;;;;5069969;28;20481;-83
2022/10/08 10:41:15;;;;;;;4.95;1.38;;;18.70;99.90;;;;;;5069032;28;20044;-82
2022/10/08 10:43:49;;;;;;;5.47;1.27;;;18.80;99.90;;;;;;5071596;28;20047;-82
2022/10/08 10:46:35;;;;;;;5.78;1.10;;;18.90;99.90;;;;;;5064919;28;20021;-83
2022/10/08 10:49:00;;;;;;;7.07;1.25;;;18.90;99.90;;;;;;5068523;28;20089;-82
2022/10/08 10:51:31;;;;;;;7.57;1.63;;;18.90;99.90;;;;;;5067867;28;20107;-82
2022/10/08 10:53:59;;;;;;;6.75;1.35;;;18.80;99.90;;;;;;5071343;28;20493;-83
2022/10/08 10:56:35;;;;;;;4.60;1.45;;;18.80;99.90;;;;;;5068672;28;20070;-82
2022/10/08 10:59:35;;;;;;;5.57;1.48;;;18.80;99.90;;;;;;5068721;28;20016;-82
2022/10/08 11:02:28;;;;;;;4.57;1.08;;;18.80;99.90;;;;;;5069866;28;20028;-82
2022/10/08 11:05:15;;;;;;;;;;;18.70;99.90;;;;;;5067986;28;20036;-82
2022/10/08 11:07:49;;;;;;;6.60;1.35;;;18.60;99.90;;;;;;5068519;28;19920;-81
2022/10/08 11:10:31;;;;;;;4.93;1.25;;;18.40;99.90;;;;;;5070181;28;20032;-82
2022/10/08 11:13:37;;;;;;;2.83;1.27;;;18.30;99.90;;;;;;5068705;28;20028;-82
2022/10/08 11:16:13;;;;;;;4.22;1.10;;;18.10;99.90;;;;;;5066508;28;20033;-82
2022/10/08 11:18:51;;;;;;;6.28;2.20;;;18.00;99.90;;;;;;5070175;28;20140;-81
2022/10/08 11:21:32;;;;;;;7.18;1.40;;;17.90;99.90;;;;;;5050983;28;20027;-82
2022/10/08 11:24:12;;;;;;;4.57;1.27;;;17.80;99.90;;;;;;5068949;28;20035;-82
2022/10/08 11:26:51;;;;;;;4.80;1.75;;;17.80;99.90;;;;;;5068497;28;20033;-82
2022/10/08 11:29:56;;;;;;;6.40;1.27;;;17.80;99.90;;;;;;5047501;28;20115;-82
2022/10/08 11:32:22;;;;;;;7.60;1.48;;;17.80;99.90;;;;;;5066175;28;20040;-82
2022/10/08 11:35:01;;;;;;;5.47;1.20;;;17.70;99.90;;;;;;5055717;28;20112;-83
2022/10/08 11:37:32;;;;;;;3.70;1.42;;;17.60;99.90;;;;;;5065305;28;20190;-82
2022/10/08 11:40:14;;;;;;;6.47;1.88;;;17.50;99.90;;;;;;5065471;28;20033;-82
2022/10/08 11:42:52;;;;;;;6.22;1.30;;;17.50;99.90;;;;;;5069358;28;20588;-81
2022/10/08 11:45:23;;;;;;;3.33;1.13;;;17.40;99.90;;;;;;5068144;28;20020;-82
2022/10/08 11:47:52;;;;;;;2.65;0.80;;;17.30;99.90;;;;;;5064501;28;20036;-81
2022/10/08 11:50:28;;;;;;;3.25;1.20;;;17.20;99.90;;;;;;5068209;28;20387;-82
2022/10/08 11:53:13;;;;;;;3.00;1.02;;;17.20;99.90;;;;;;5063479;28;20039;-82
2022/10/08 11:55:54;;;;;;;1.30;0.60;;;17.10;99.90;;;;;;5067682;28;20031;-81
2022/10/08 11:58:32;;;;;;;1.65;0.88;;;17.00;99.90;;;;;;5068200;28;20047;-82
2022/10/08 12:01:07;;;;;;;5.78;2.00;;;16.90;99.90;;;;;;5065377;28;20024;-82
2022/10/08 12:03:36;;;;;;;4.85;0.60;;;16.90;99.90;;;;;;5068938;28;20425;-82
2022/10/08 12:06:25;;;;;;;9.98;1.08;;;17.00;99.90;;;;;;5067657;28;20425;-83
2022/10/08 12:08:58;;;;;;;1.98;1.20;;;16.80;99.90;;;;;;5041619;28;20048;-82
2022/10/08 12:11:36;;;;;;;1.30;0.60;;;16.80;99.90;;;;;;5068196;28;20064;-82
2022/10/08 12:14:11;;;;;;;2.42;0.50;;;16.60;99.90;;;;;;5064332;28;20054;-83
2022/10/08 12:16:46;;;;;;;2.33;0.90;;;16.50;99.90;;;;;;5053605;28;20021;-82
2022/10/08 12:19:33;;;;;;;1.73;0.85;;;16.40;99.90;;;;;;5071775;28;20028;-82
2022/10/08 12:22:15;;;;;;;1.80;0.80;;;16.40;99.90;;;;;;5063265;28;20481;-82
2022/10/08 12:24:42;;;;;;;3.53;1.10;;;16.50;99.90;;;;;;5062811;28;20027;-81
2022/10/08 12:27:17;;;;;;;5.65;0.88;;;16.60;99.90;;;;;;5065607;28;20029;-82
2022/10/08 12:29:59;;;;;;;1.95;0.73;;;16.70;99.90;;;;;;5065250;28;20033;-82
2022/10/08 12:32:38;;;;;;;2.92;0.65;;;16.70;99.90;;;;;;5062836;28;20044;-81
2022/10/08 12:35:05;;;;;;;2.00;0.70;;;16.70;99.90;;;;;;5063782;28;20036;-81
2022/10/08 12:37:36;;;;;;;3.00;1.65;;;16.70;99.90;;;;;;5045148;28;20032;-82
2022/10/08 12:40:11;;;;;;;2.40;0.90;;;16.70;99.90;;;;;;5088208;28;20008;-81
2022/10/08 12:42:39;;;;;;;3.20;1.05;;;16.70;99.90;;;;;;5087604;28;20017;-80
2022/10/08 12:45:26;;;;;;;2.65;0.70;;;16.80;99.90;;;;;;5072870;28;20029;-81
2022/10/08 12:48:03;;;;;;;2.25;0.80;;;16.80;99.90;;;;;;5072216;28;20036;-81
2022/10/08 12:50:42;;;;;;;2.17;0.90;;;16.80;99.90;;;;;;5066865;28;20115;-81
2022/10/08 12:53:12;;;;;;;1.75;0.65;;;16.80;99.90;;;;;;5069211;28;20035;-82
2022/10/08 12:55:47;;;;;;;2.10;0.60;;;16.80;99.90;;;;;;5072078;28;20135;-82
2022/10/08 12:58:17;;;;;;;5.28;1.67;;;16.80;99.90;;;;;;5072594;28;20060;-81
2022/10/08 13:00:44;;;;;;;3.10;0.73;;;16.80;99.90;;;;;;5072835;28;20032;-83
2022/10/08 13:03:16;;;;;;;3.70;1.20;;;16.70;99.90;;;;;;5070948;28;20055;-83
2022/10/08 13:05:42;;;;;;;1.92;0.80;;;16.70;99.90;;;;;;5071823;28;20020;-83
2022/10/08 13:08:33;;;;;;;0.80;0.60;;;16.70;99.90;;;;;;5071183;28;20043;-82